createdAt,value
2018-07-06T00:00:30.091Z,99.90
2018-07-06T00:02:51.710Z,99.90
2018-07-06T00:05:13.262Z,99.90
2018-07-06T00:07:34.947Z,99.90
2018-07-06T00:09:56.870Z,99.90
2018-07-06T00:12:18.538Z,99.90
2018-07-06T00:14:40.412Z,99.90
2018-07-06T00:17:01.890Z,99.90
2018-07-06T00:19:23.407Z,99.90
2018-07-06T00:21:44.913Z,99.90
2018-07-06T00:24:06.584Z,99.90
2018-07-06T00:26:28.150Z,99.90
2018-07-06T00:28:49.794Z,99.90
2018-07-06T00:31:11.124Z,99.90
2018-07-06T00:33:32.635Z,99.90
2018-07-06T00:35:54.287Z,99.90
2018-07-06T00:38:15.886Z,99.90
2018-07-06T00:40:37.792Z,99.90
2018-07-06T00:45:14.989Z,99.90
2018-07-06T00:47:36.780Z,99.90
2018-07-06T00:49:58.129Z,99.90
2018-07-06T00:52:20.176Z,99.90
2018-07-06T00:54:41.691Z,99.90
2018-07-06T00:57:03.390Z,99.90
2018-07-06T00:59:24.988Z,99.90
2018-07-06T01:01:46.694Z,99.90
2018-07-06T01:04:08.734Z,99.90
2018-07-06T01:06:30.194Z,99.90
2018-07-06T01:08:51.827Z,99.90
2018-07-06T01:11:13.350Z,99.90
2018-07-06T01:13:34.602Z,99.90
2018-07-06T01:15:56.306Z,99.90
2018-07-06T01:18:18.179Z,99.90
2018-07-06T01:20:39.637Z,99.90
2018-07-06T01:23:01.282Z,99.90
2018-07-06T01:25:23.081Z,99.90
2018-07-06T01:27:44.838Z,99.90
2018-07-06T01:30:06.406Z,99.90
2018-07-06T01:32:28.004Z,99.90
2018-07-06T01:34:49.820Z,99.90
2018-07-06T01:37:11.467Z,99.90
2018-07-06T01:39:33.040Z,99.90
2018-07-06T01:41:54.491Z,99.90
2018-07-06T01:44:16.250Z,99.90
2018-07-06T01:46:37.683Z,99.90
2018-07-06T01:48:59.243Z,99.90
2018-07-06T01:51:21.017Z,99.90
2018-07-06T01:53:42.554Z,99.90
2018-07-06T01:56:04.222Z,99.90
2018-07-06T01:58:25.814Z,99.90
2018-07-06T02:00:47.545Z,99.90
2018-07-06T02:03:09.153Z,99.90
2018-07-06T02:05:30.744Z,99.90
2018-07-06T02:07:52.353Z,99.90
2018-07-06T02:10:13.885Z,99.90
2018-07-06T02:12:35.354Z,99.90
2018-07-06T02:14:56.850Z,99.90
2018-07-06T02:17:18.514Z,99.90
2018-07-06T02:19:39.907Z,99.90
2018-07-06T02:22:01.832Z,99.90
2018-07-06T02:24:23.230Z,99.90
2018-07-06T02:26:44.662Z,99.90
2018-07-06T02:29:06.198Z,99.90
2018-07-06T02:31:27.678Z,99.90
2018-07-06T02:33:49.482Z,99.90
2018-07-06T02:36:10.990Z,99.90
2018-07-06T02:38:32.459Z,99.90
2018-07-06T02:43:09.333Z,99.90
2018-07-06T02:45:30.963Z,99.90
2018-07-06T02:47:52.576Z,99.90
2018-07-06T02:50:14.165Z,99.90
2018-07-06T02:52:35.690Z,99.90
2018-07-06T02:54:57.138Z,99.90
2018-07-06T02:57:18.717Z,99.90
2018-07-06T02:59:40.605Z,99.90
2018-07-06T03:02:02.152Z,99.90
2018-07-06T03:04:23.746Z,99.90
2018-07-06T03:06:45.598Z,99.90
2018-07-06T03:09:07.051Z,99.90
2018-07-06T03:11:28.591Z,99.90
2018-07-06T03:13:50.093Z,99.90
2018-07-06T03:16:11.611Z,99.90
2018-07-06T03:18:33.130Z,99.90
2018-07-06T03:20:54.597Z,99.90
2018-07-06T03:23:16.109Z,99.90
2018-07-06T03:25:38.022Z,99.90
2018-07-06T03:27:59.551Z,99.90
2018-07-06T03:30:21.283Z,99.90
2018-07-06T03:32:42.821Z,99.90
2018-07-06T03:35:04.265Z,99.90
2018-07-06T03:37:25.685Z,99.90
2018-07-06T03:39:47.333Z,99.90
2018-07-06T03:42:09.030Z,99.90
2018-07-06T03:44:30.647Z,99.90
2018-07-06T03:46:51.973Z,99.90
2018-07-06T03:49:13.663Z,99.90
2018-07-06T03:51:35.158Z,99.90
2018-07-06T03:53:56.863Z,99.90
2018-07-06T03:56:18.426Z,99.90
2018-07-06T03:58:40.186Z,99.90
2018-07-06T04:01:01.784Z,99.90
2018-07-06T04:03:23.616Z,99.90
2018-07-06T04:05:45.181Z,99.90
2018-07-06T04:08:06.750Z,99.90
2018-07-06T04:10:28.406Z,99.90
2018-07-06T04:12:49.841Z,99.90
2018-07-06T04:15:11.413Z,99.90
2018-07-06T04:17:33.187Z,99.90
2018-07-06T04:19:54.686Z,99.90
2018-07-06T04:22:17.122Z,99.90
2018-07-06T04:24:38.634Z,99.90
2018-07-06T04:27:00.122Z,99.90
2018-07-06T04:29:21.752Z,99.90
2018-07-06T04:31:43.193Z,99.90
2018-07-06T04:34:04.937Z,99.90
2018-07-06T04:36:26.414Z,99.90
2018-07-06T04:38:48.065Z,99.90
2018-07-06T04:41:09.798Z,99.90
2018-07-06T04:43:31.338Z,99.90
2018-07-06T04:45:53.188Z,99.90
2018-07-06T04:48:14.798Z,99.90
2018-07-06T04:52:51.764Z,99.90
2018-07-06T04:55:13.357Z,99.90
2018-07-06T04:57:35.355Z,99.90
2018-07-06T04:59:56.760Z,99.90
2018-07-06T05:02:18.503Z,99.90
2018-07-06T05:04:40.151Z,99.90
2018-07-06T05:07:01.897Z,99.90
2018-07-06T05:09:23.286Z,99.90
2018-07-06T05:11:44.956Z,99.90
2018-07-06T05:14:07.417Z,99.90
2018-07-06T05:16:28.814Z,99.90
2018-07-06T05:18:50.427Z,99.90
2018-07-06T05:21:11.985Z,99.90
2018-07-06T05:23:33.541Z,99.90
2018-07-06T05:25:55.183Z,99.90
2018-07-06T05:28:16.575Z,99.90
2018-07-06T05:30:39.120Z,99.90
2018-07-06T05:33:00.469Z,99.90
2018-07-06T05:35:22.098Z,99.90
2018-07-06T05:37:43.650Z,99.90
2018-07-06T05:40:05.244Z,99.90
2018-07-06T05:42:26.894Z,99.90
2018-07-06T05:44:48.426Z,99.90
2018-07-06T05:47:10.114Z,99.90
2018-07-06T05:49:31.834Z,99.90
2018-07-06T05:51:53.578Z,99.90
2018-07-06T05:54:15.545Z,99.90
2018-07-06T05:56:37.029Z,99.90
2018-07-06T05:58:58.473Z,99.90
2018-07-06T06:01:20.142Z,99.90
2018-07-06T06:03:41.757Z,99.90
2018-07-06T06:06:03.384Z,99.90
2018-07-06T06:08:12.358Z,99.90
2018-07-06T06:10:16.117Z,99.90
2018-07-06T06:12:20.614Z,99.90
2018-07-06T06:14:24.806Z,99.90
2018-07-06T06:16:28.781Z,99.90
2018-07-06T06:18:33.183Z,99.90
2018-07-06T06:20:37.321Z,99.90
2018-07-06T06:22:41.818Z,99.90
2018-07-06T06:24:46.069Z,99.90
2018-07-06T06:26:50.614Z,99.90
2018-07-06T06:28:54.901Z,99.90
2018-07-06T06:30:59.801Z,99.90
2018-07-06T06:33:03.962Z,99.90
2018-07-06T06:35:08.361Z,99.90
2018-07-06T06:37:12.992Z,99.90
2018-07-06T06:39:17.272Z,99.90
2018-07-06T06:41:21.396Z,99.90
2018-07-06T06:43:25.361Z,99.90
2018-07-06T06:45:29.371Z,99.90
2018-07-06T06:47:33.792Z,99.90
2018-07-06T06:49:37.899Z,99.90
2018-07-06T06:51:42.446Z,99.90
2018-07-06T06:53:46.719Z,99.90
2018-07-06T06:55:50.970Z,99.90
2018-07-06T06:57:55.394Z,99.90
2018-07-06T06:59:59.356Z,99.90
2018-07-06T07:02:03.981Z,99.90
2018-07-06T07:04:08.299Z,99.90
2018-07-06T07:06:12.525Z,99.90
2018-07-06T07:08:16.766Z,99.90
2018-07-06T07:10:21.014Z,99.90
2018-07-06T07:12:25.249Z,99.90
2018-07-06T07:14:29.589Z,99.90
2018-07-06T07:16:34.754Z,99.90
2018-07-06T07:18:39.064Z,99.90
2018-07-06T07:20:43.333Z,99.90
2018-07-06T07:22:47.961Z,99.90
2018-07-06T07:24:51.952Z,99.90
2018-07-06T07:26:58.340Z,99.90
2018-07-06T07:29:02.418Z,99.90
2018-07-06T07:31:06.989Z,99.90
2018-07-06T07:33:12.007Z,99.90
2018-07-06T07:35:15.991Z,99.90
2018-07-06T07:37:20.253Z,99.90
2018-07-06T07:39:24.605Z,99.90
2018-07-06T07:41:29.174Z,99.90
2018-07-06T07:43:33.849Z,99.90
2018-07-06T07:45:37.815Z,99.90
2018-07-06T07:47:41.759Z,99.90
2018-07-06T07:49:45.893Z,99.90
2018-07-06T07:52:03.903Z,99.90
2018-07-06T07:54:20.548Z,99.90
2018-07-06T07:56:24.835Z,99.90
2018-07-06T07:58:29.117Z,99.90
2018-07-06T08:00:33.555Z,99.90
2018-07-06T08:02:38.262Z,99.90
2018-07-06T08:04:42.278Z,99.90
2018-07-06T08:06:46.534Z,99.90
2018-07-06T08:08:50.727Z,99.90
2018-07-06T08:10:55.039Z,99.90
2018-07-06T08:12:59.269Z,99.90
2018-07-06T08:15:03.335Z,99.90
2018-07-06T08:17:07.696Z,99.90
2018-07-06T08:19:11.942Z,99.90
2018-07-06T08:21:16.189Z,99.90
2018-07-06T08:23:20.542Z,99.90
2018-07-06T08:25:24.998Z,99.90
2018-07-06T08:27:29.392Z,99.90
2018-07-06T08:29:34.495Z,99.90
2018-07-06T08:31:38.541Z,99.90
2018-07-06T08:33:52.741Z,99.90
2018-07-06T08:36:08.291Z,99.90
2018-07-06T08:38:12.266Z,99.90
2018-07-06T08:40:16.878Z,99.90
2018-07-06T08:42:21.035Z,99.90
2018-07-06T08:44:24.993Z,99.90
2018-07-06T08:46:29.446Z,99.90
2018-07-06T08:48:34.023Z,99.90
2018-07-06T08:50:38.273Z,99.90
2018-07-06T08:52:43.689Z,99.90
2018-07-06T08:54:49.390Z,99.90
2018-07-06T08:56:53.678Z,99.90
2018-07-06T08:58:57.970Z,99.90
2018-07-06T09:01:02.300Z,99.90
2018-07-06T09:03:06.881Z,99.90
2018-07-06T09:05:11.935Z,99.90
2018-07-06T09:07:16.823Z,99.90
2018-07-06T09:09:21.056Z,99.90
2018-07-06T09:11:25.483Z,99.90
2018-07-06T09:13:29.998Z,99.90
2018-07-06T09:17:38.728Z,99.90
2018-07-06T09:19:43.742Z,99.90
2018-07-06T09:21:47.890Z,99.90
2018-07-06T09:23:51.878Z,99.90
2018-07-06T09:25:57.447Z,99.90
2018-07-06T09:28:01.632Z,99.90
2018-07-06T09:30:05.885Z,99.90
2018-07-06T09:32:10.157Z,99.90
2018-07-06T09:34:14.805Z,99.90
2018-07-06T09:36:19.386Z,99.90
2018-07-06T09:38:23.965Z,99.90
2018-07-06T09:40:28.210Z,99.90
2018-07-06T09:44:36.409Z,99.90
2018-07-06T09:46:40.683Z,99.90
2018-07-06T09:48:44.919Z,99.90
2018-07-06T09:50:49.233Z,99.90
2018-07-06T09:52:54.186Z,99.90
2018-07-06T09:54:58.418Z,99.90
2018-07-06T09:57:02.645Z,99.90
2018-07-06T09:59:07.518Z,99.90
2018-07-06T10:01:12.078Z,99.90
2018-07-06T10:03:16.119Z,99.90
2018-07-06T10:05:20.825Z,99.90
2018-07-06T10:07:25.386Z,99.90
2018-07-06T10:09:29.630Z,99.90
2018-07-06T10:11:34.469Z,99.90
2018-07-06T10:13:38.915Z,99.90
2018-07-06T10:15:43.309Z,99.90
2018-07-06T10:17:47.582Z,99.90
2018-07-06T10:19:51.876Z,99.90
2018-07-06T10:21:56.299Z,99.90
2018-07-06T10:24:02.473Z,99.90
2018-07-06T10:26:06.720Z,99.90
2018-07-06T10:28:18.737Z,99.90
2018-07-06T10:30:30.317Z,99.90
2018-07-06T10:32:34.612Z,99.90
2018-07-06T10:34:38.901Z,99.90
2018-07-06T10:36:43.257Z,99.90
2018-07-06T10:38:47.639Z,99.90
2018-07-06T10:40:52.535Z,99.90
2018-07-06T10:42:57.105Z,99.90
2018-07-06T10:45:01.350Z,99.90
2018-07-06T10:47:05.997Z,99.90
2018-07-06T10:49:10.295Z,99.90
2018-07-06T10:51:14.734Z,99.90
2018-07-06T10:53:19.010Z,99.90
2018-07-06T10:55:23.330Z,99.90
2018-07-06T10:57:27.953Z,99.90
2018-07-06T10:59:32.537Z,99.90
2018-07-06T11:01:36.810Z,99.90
2018-07-06T11:03:41.473Z,99.90
2018-07-06T11:05:45.909Z,99.90
2018-07-06T11:07:49.908Z,99.90
2018-07-06T11:09:54.170Z,99.90
2018-07-06T11:11:58.748Z,99.90
2018-07-06T11:14:03.503Z,99.90
2018-07-06T11:16:07.806Z,99.90
2018-07-06T11:18:12.423Z,99.90
2018-07-06T11:20:16.666Z,99.90
2018-07-06T11:22:20.906Z,99.90
2018-07-06T11:24:25.185Z,99.90
2018-07-06T11:26:29.410Z,99.90
2018-07-06T11:28:33.846Z,99.90
2018-07-06T11:30:38.069Z,99.90
2018-07-06T11:32:42.541Z,99.90
2018-07-06T11:34:47.126Z,99.90
2018-07-06T11:36:51.646Z,99.90
2018-07-06T11:38:56.245Z,99.90
2018-07-06T11:41:00.588Z,99.90
2018-07-06T11:43:04.841Z,99.90
2018-07-06T11:45:10.050Z,99.90
2018-07-06T11:47:14.448Z,99.90
2018-07-06T11:49:19.030Z,99.90
2018-07-06T11:51:23.404Z,99.90
2018-07-06T11:53:28.638Z,99.90
2018-07-06T11:55:32.871Z,99.90
2018-07-06T11:57:37.138Z,99.90
2018-07-06T11:59:41.725Z,99.90
2018-07-06T12:01:45.980Z,99.90
2018-07-06T12:07:58.596Z,99.90
2018-07-06T12:10:02.853Z,99.90
2018-07-06T12:12:07.480Z,99.90
2018-07-06T12:14:12.075Z,99.90
2018-07-06T12:16:17.242Z,99.90
2018-07-06T12:18:21.624Z,99.90
2018-07-06T12:20:26.225Z,99.90
2018-07-06T12:22:30.596Z,99.90
2018-07-06T12:24:35.185Z,99.90
2018-07-06T12:26:39.440Z,99.90
2018-07-06T12:28:43.748Z,99.90
2018-07-06T12:30:47.697Z,99.90
2018-07-06T12:32:51.988Z,99.90
2018-07-06T12:34:56.573Z,99.90
2018-07-06T12:37:00.934Z,99.60
2018-07-06T12:39:06.134Z,98.50
2018-07-06T12:41:10.750Z,98.20
2018-07-06T12:43:15.230Z,98.90
2018-07-06T12:45:19.617Z,98.50
2018-07-06T12:47:23.870Z,99.60
2018-07-06T12:49:28.474Z,99.90
2018-07-06T12:51:32.521Z,99.30
2018-07-06T12:53:37.186Z,99.90
2018-07-06T12:55:41.758Z,99.90
2018-07-06T12:57:46.326Z,99.90
2018-07-06T12:59:50.814Z,99.90
2018-07-06T13:01:55.100Z,99.90
2018-07-06T13:03:59.346Z,97.30
2018-07-06T13:06:04.896Z,99.70
2018-07-06T13:08:09.193Z,98.00
2018-07-06T13:10:13.793Z,98.40
2018-07-06T13:12:18.273Z,99.30
2018-07-06T13:14:22.669Z,99.40
2018-07-06T13:16:26.982Z,99.50
2018-07-06T13:18:31.441Z,99.40
2018-07-06T13:20:35.686Z,98.20
2018-07-06T13:22:40.237Z,97.90
2018-07-06T13:26:48.522Z,96.30
2018-07-06T13:28:53.129Z,95.30
2018-07-06T13:30:57.631Z,94.70
2018-07-06T13:33:01.863Z,95.50
2018-07-06T13:35:06.158Z,96.10
2018-07-06T13:37:10.858Z,97.00
2018-07-06T13:41:19.604Z,94.80
2018-07-06T13:43:23.846Z,94.90
2018-07-06T13:45:28.101Z,96.40
2018-07-06T13:49:36.251Z,98.40
2018-07-06T13:51:40.519Z,98.50
2018-07-06T13:55:48.669Z,98.00
2018-07-06T13:57:53.261Z,98.30
2018-07-06T13:59:57.530Z,97.10
2018-07-06T14:02:01.822Z,95.90
2018-07-06T14:04:06.405Z,93.20
2018-07-06T14:08:15.774Z,95.20
2018-07-06T14:10:20.063Z,95.70
2018-07-06T14:14:29.209Z,96.30
2018-07-06T14:16:33.461Z,96.00
2018-07-06T14:18:38.229Z,95.20
2018-07-06T14:20:42.454Z,94.80
2018-07-06T14:24:51.162Z,93.00
2018-07-06T14:26:55.849Z,93.30
2018-07-06T14:33:08.056Z,95.10
2018-07-06T14:35:12.757Z,93.70
2018-07-06T14:37:17.014Z,93.50
2018-07-06T14:39:21.316Z,94.20
2018-07-06T14:41:25.552Z,94.40
2018-07-06T14:43:30.169Z,94.90
2018-07-06T14:45:34.464Z,96.70
2018-07-06T14:47:38.756Z,96.90
2018-07-06T14:49:43.333Z,94.90
2018-07-06T14:51:47.625Z,93.30
2018-07-06T14:53:51.893Z,96.20
2018-07-06T14:55:56.257Z,95.30
2018-07-06T14:58:00.780Z,93.90
2018-07-06T15:00:05.635Z,93.60
2018-07-06T15:02:10.190Z,94.00
2018-07-06T15:04:14.904Z,93.10
2018-07-06T15:06:19.874Z,93.00
2018-07-06T15:08:24.133Z,94.90
2018-07-06T15:10:28.775Z,95.30
2018-07-06T15:12:33.014Z,95.80
2018-07-06T15:14:37.246Z,96.40
2018-07-06T15:16:41.850Z,96.20
2018-07-06T15:18:46.417Z,95.70
2018-07-06T15:20:50.992Z,95.30
2018-07-06T15:22:55.290Z,94.90
2018-07-06T15:25:00.256Z,94.10
2018-07-06T15:27:05.037Z,93.70
2018-07-06T15:29:09.670Z,94.20
2018-07-06T15:31:13.988Z,95.00
2018-07-06T15:35:22.614Z,94.40
2018-07-06T15:37:27.195Z,94.90
2018-07-06T15:39:31.460Z,95.10
2018-07-06T15:41:35.825Z,94.40
2018-07-06T15:43:40.073Z,93.80
2018-07-06T15:45:44.506Z,92.80
2018-07-06T15:47:48.754Z,92.70
2018-07-06T15:49:52.991Z,93.10
2018-07-06T15:51:57.226Z,93.20
2018-07-06T15:54:01.550Z,94.50
2018-07-06T15:56:05.873Z,94.90
2018-07-06T15:58:10.102Z,95.40
2018-07-06T16:00:14.345Z,95.10
2018-07-06T16:04:22.793Z,96.50
2018-07-06T16:06:27.134Z,96.10
2018-07-06T16:08:31.403Z,96.40
2018-07-06T16:10:35.993Z,96.00
2018-07-06T16:12:40.294Z,96.10
2018-07-06T16:14:44.526Z,95.90
2018-07-06T16:16:49.118Z,95.50
2018-07-06T16:18:53.374Z,95.80
2018-07-06T16:23:01.513Z,95.50
2018-07-06T16:25:06.290Z,95.20
2018-07-06T16:27:10.589Z,95.50
2018-07-06T16:29:15.186Z,95.90
2018-07-06T16:31:19.773Z,95.20
2018-07-06T16:35:27.894Z,95.60
2018-07-06T16:37:32.487Z,96.30
2018-07-06T16:39:37.393Z,97.30
2018-07-06T16:41:41.727Z,97.50
2018-07-06T16:43:47.636Z,97.00
2018-07-06T16:45:51.833Z,97.70
2018-07-06T16:47:56.091Z,97.20
2018-07-06T16:50:01.727Z,97.50
2018-07-06T16:52:06.548Z,98.40
2018-07-06T16:54:11.314Z,98.50
2018-07-06T16:56:16.040Z,98.30
2018-07-06T16:58:20.290Z,98.10
2018-07-06T17:00:25.385Z,97.90
2018-07-06T17:02:29.651Z,98.50
2018-07-06T17:04:34.261Z,99.00
2018-07-06T17:06:38.640Z,99.20
2018-07-06T17:08:43.403Z,98.80
2018-07-06T17:10:47.722Z,98.70
2018-07-06T17:12:52.969Z,98.20
2018-07-06T17:14:57.548Z,98.20
2018-07-06T17:17:01.802Z,98.60
2018-07-06T17:19:06.098Z,98.90
2018-07-06T17:21:10.408Z,99.10
2018-07-06T17:23:15.194Z,99.10
2018-07-06T17:25:19.485Z,99.90
2018-07-06T17:27:23.709Z,99.90
2018-07-06T17:29:27.937Z,99.60
2018-07-06T17:31:32.579Z,99.70
2018-07-06T17:33:37.106Z,99.30
2018-07-06T17:35:42.382Z,99.60
2018-07-06T17:37:47.746Z,99.40
2018-07-06T17:39:52.393Z,99.50
2018-07-06T17:41:57.566Z,99.90
2018-07-06T17:44:01.856Z,99.90
2018-07-06T17:46:06.473Z,99.90
2018-07-06T17:48:11.301Z,99.90
2018-07-06T17:50:15.514Z,99.90
2018-07-06T17:52:20.132Z,99.90
2018-07-06T17:54:24.418Z,99.90
2018-07-06T17:58:33.959Z,99.90
2018-07-06T18:00:38.529Z,99.90
2018-07-06T18:02:42.858Z,99.90
2018-07-06T18:04:47.102Z,99.90
2018-07-06T18:06:51.343Z,99.90
2018-07-06T18:08:55.976Z,99.90
2018-07-06T18:11:00.302Z,99.90
2018-07-06T18:13:05.058Z,99.90
2018-07-06T18:15:09.605Z,99.90
2018-07-06T18:17:13.869Z,99.90
2018-07-06T18:19:18.344Z,99.90
2018-07-06T18:21:22.553Z,99.90
2018-07-06T18:23:26.643Z,99.90
2018-07-06T18:25:30.945Z,99.90
2018-07-06T18:29:39.438Z,99.90
2018-07-06T18:31:44.542Z,99.90
2018-07-06T18:33:48.880Z,99.90
2018-07-06T18:35:53.114Z,99.90
2018-07-06T18:37:58.679Z,99.90
2018-07-06T18:40:03.812Z,99.90
2018-07-06T18:44:12.266Z,99.90
2018-07-06T18:46:16.626Z,99.90
2018-07-06T18:48:20.865Z,99.90
2018-07-06T18:50:25.446Z,99.90
2018-07-06T18:52:29.702Z,99.90
2018-07-06T18:54:34.060Z,99.90
2018-07-06T18:56:38.192Z,99.90
2018-07-06T18:58:42.481Z,99.90
2018-07-06T19:00:47.067Z,99.90
2018-07-06T19:02:51.302Z,99.90
2018-07-06T19:04:55.885Z,99.90
2018-07-06T19:07:00.117Z,99.90
2018-07-06T19:09:05.051Z,99.90
2018-07-06T19:11:09.090Z,99.90
2018-07-06T19:13:13.333Z,99.90
2018-07-06T19:15:17.907Z,99.90
2018-07-06T19:17:22.382Z,99.90
2018-07-06T19:21:31.167Z,99.90
2018-07-06T19:23:35.483Z,99.90
2018-07-06T19:25:39.822Z,99.90
2018-07-06T19:27:44.386Z,99.90
2018-07-06T19:29:48.622Z,99.90
2018-07-06T19:31:52.857Z,99.90
2018-07-06T19:33:58.819Z,99.90
2018-07-06T19:36:03.389Z,99.90
2018-07-06T19:38:08.048Z,99.90
2018-07-06T19:40:12.694Z,99.90
2018-07-06T19:42:16.950Z,99.90
2018-07-06T19:44:21.297Z,99.90
2018-07-06T19:46:25.534Z,99.90
2018-07-06T19:48:29.775Z,99.90
2018-07-06T19:50:34.543Z,99.90
2018-07-06T19:52:39.155Z,99.90
2018-07-06T19:54:44.132Z,99.90
2018-07-06T19:56:48.699Z,99.90
2018-07-06T19:58:53.273Z,99.90
2018-07-06T20:03:01.743Z,99.90
2018-07-06T20:05:06.299Z,99.90
2018-07-06T20:07:10.553Z,99.90
2018-07-06T20:09:15.068Z,99.90
2018-07-06T20:11:19.638Z,99.90
2018-07-06T20:13:23.932Z,99.90
2018-07-06T20:15:28.693Z,99.90
2018-07-06T20:17:33.813Z,99.90
2018-07-06T20:19:38.100Z,99.90
2018-07-06T20:21:42.723Z,99.90
2018-07-06T20:23:47.122Z,99.90
2018-07-06T20:25:51.506Z,99.90
2018-07-06T20:27:55.753Z,99.90
2018-07-06T20:30:00.063Z,99.90
2018-07-06T20:32:04.481Z,99.90
2018-07-06T20:34:08.890Z,99.90
2018-07-06T20:36:13.588Z,99.90
2018-07-06T20:38:17.985Z,99.90
2018-07-06T20:40:22.239Z,99.90
2018-07-06T20:42:26.678Z,99.90
2018-07-06T20:44:30.929Z,99.90
2018-07-06T20:46:35.520Z,99.90
2018-07-06T20:48:39.766Z,99.90
2018-07-06T20:50:44.364Z,99.90
2018-07-06T20:52:49.274Z,99.90
2018-07-06T20:54:53.602Z,99.90
2018-07-06T20:56:58.178Z,99.90
2018-07-06T20:59:02.422Z,99.90
2018-07-06T21:01:06.997Z,99.90
2018-07-06T21:03:11.241Z,99.90
2018-07-06T21:05:15.873Z,99.90
2018-07-06T21:07:19.827Z,99.90
2018-07-06T21:09:25.564Z,99.90
2018-07-06T21:11:30.133Z,99.90
2018-07-06T21:13:34.450Z,99.90
2018-07-06T21:15:38.907Z,99.90
2018-07-06T21:17:43.158Z,99.90
2018-07-06T21:19:48.058Z,99.90
2018-07-06T21:21:53.322Z,99.90
2018-07-06T21:23:57.625Z,99.90
2018-07-06T21:26:01.883Z,99.90
2018-07-06T21:28:07.305Z,99.90
2018-07-06T21:30:11.583Z,99.90
2018-07-06T21:32:16.373Z,99.90
2018-07-06T21:34:21.626Z,99.90
2018-07-06T21:36:26.324Z,99.90
2018-07-06T21:38:30.907Z,99.90
2018-07-06T21:40:35.821Z,99.90
2018-07-06T21:42:40.102Z,99.90
2018-07-06T21:44:44.393Z,99.90
2018-07-06T21:46:48.616Z,99.90
2018-07-06T21:48:53.224Z,99.90
2018-07-06T21:50:57.422Z,99.90
2018-07-06T21:53:02.541Z,99.90
2018-07-06T21:55:07.190Z,99.90
2018-07-06T21:57:11.504Z,99.90
2018-07-06T21:59:16.266Z,99.90
2018-07-06T22:01:20.850Z,99.90
2018-07-06T22:03:25.321Z,99.90
2018-07-06T22:05:29.625Z,99.90
2018-07-06T22:07:36.118Z,99.90
2018-07-06T22:09:40.347Z,99.90
2018-07-06T22:11:45.829Z,99.90
2018-07-06T22:13:50.460Z,99.90
2018-07-06T22:15:54.420Z,99.90
2018-07-06T22:17:59.529Z,99.90
2018-07-06T22:20:04.486Z,99.90
2018-07-06T22:22:08.802Z,99.90
2018-07-06T22:24:13.078Z,99.90
2018-07-06T22:26:17.322Z,99.90
2018-07-06T22:28:21.993Z,99.90
2018-07-06T22:30:26.407Z,99.90
2018-07-06T22:32:30.677Z,99.90
2018-07-06T22:34:35.101Z,99.90
2018-07-06T22:36:39.769Z,99.90
2018-07-06T22:38:44.080Z,99.90
2018-07-06T22:40:48.326Z,99.90
2018-07-06T22:42:53.252Z,99.90
2018-07-06T22:44:57.238Z,99.90
2018-07-06T22:47:01.509Z,99.90
2018-07-06T22:49:07.586Z,99.90
2018-07-06T22:51:11.947Z,99.90
2018-07-06T22:53:16.150Z,99.90
2018-07-06T22:55:20.617Z,99.90
2018-07-06T22:57:24.864Z,99.90
2018-07-06T22:59:29.119Z,99.90
2018-07-06T23:01:33.694Z,99.90
2018-07-06T23:03:37.933Z,99.90
2018-07-06T23:05:42.288Z,99.90
2018-07-06T23:07:46.577Z,99.90
2018-07-06T23:09:51.050Z,99.90
2018-07-06T23:11:56.313Z,99.90
2018-07-06T23:14:00.851Z,99.90
2018-07-06T23:16:05.086Z,99.90
2018-07-06T23:18:09.053Z,99.90
2018-07-06T23:20:13.078Z,99.90
2018-07-06T23:22:27.254Z,99.90
2018-07-06T23:24:31.636Z,99.90
2018-07-06T23:26:36.286Z,99.90
2018-07-06T23:28:40.877Z,99.90
2018-07-06T23:30:45.157Z,99.90
2018-07-06T23:32:49.773Z,99.90
2018-07-06T23:34:54.409Z,99.90
2018-07-06T23:36:58.380Z,99.90
2018-07-06T23:39:03.789Z,99.90
2018-07-06T23:41:08.367Z,99.90
2018-07-06T23:43:12.942Z,99.90
2018-07-06T23:45:17.544Z,99.90
2018-07-06T23:47:22.073Z,99.90
2018-07-06T23:49:26.374Z,99.90
2018-07-06T23:51:31.303Z,99.90
2018-07-06T23:53:35.968Z,99.90
2018-07-06T23:55:40.237Z,99.90
2018-07-06T23:57:45.714Z,99.90
2018-07-06T23:59:50.181Z,99.90
